Terminal Aerodrome Forecast
Issued by NWS North Platte, NE

Home | Current Version | Previous Version | Graphics & Text | Print | Product List | Glossary On
Versions: 1 2 3 4 5 6 7 8 9 10 11 12 13 14
000
FTUS43 KLBF 220520
TAFVTN
TAF
KVTN 220520Z 2206/2306 28007KT P6SM SCT100
     FM221500 30013G20KT P6SM BKN100 PROB30 2216/2219 5SM -SHRA
      OVC050
     FM221900 33015G22KT P6SM BKN080
      TEMPO 2220/2224 4SM TSRA OVC040CB
     FM230000 33009KT P6SM BKN080 PROB30 2300/2304 P6SM -SHRA
      OVC080=

USA.gov is the U.S. government's official web portal to all federal, state and local government web resources and services.